Time;durP1;ratioP1;P1;durP2;ratioP2;P2;SDS_P1;SDS_P2;PMS_P1;PMS_P2;Temp;Humidity;BMP_temperature;BMP_pressure;BME280_temperature;BME280_humidity;BME280_pressure;Samples;Min_cycle;Max_cycle;Signal;HPM_P1;HPM_P2
2021/12/31 00:01:13;;;;;;;7.03;2.50;;;;;;;;;;5043973;28;20068;-93
2021/12/31 00:03:39;;;;;;;6.20;2.55;;;;;;;;;;5044321;28;20049;-93
2021/12/31 00:06:06;;;;;;;5.25;2.20;;;;;;;;;;5041684;28;20038;-93
2021/12/31 00:08:32;;;;;;;6.43;2.70;;;;;;;;;;5039860;28;20037;-93
2021/12/31 00:10:59;;;;;;;5.85;2.40;;;;;;;;;;5041762;28;20033;-92
2021/12/31 00:13:26;;;;;;;6.95;2.30;;;;;;;;;;5040617;28;20046;-92
2021/12/31 00:15:52;;;;;;;5.90;2.67;;;;;;;;;;5042097;28;20030;-93
2021/12/31 00:18:18;;;;;;;9.15;2.55;;;;;;;;;;5040893;28;20052;-92
2021/12/31 00:20:44;;;;;;;5.00;2.30;;;;;;;;;;5039099;28;20124;-92
2021/12/31 00:23:13;;;;;;;5.63;2.42;;;;;;;;;;5031540;28;20503;-92
2021/12/31 00:25:42;;;;;;;7.53;2.35;;;;;;;;;;5058257;28;20041;-92
2021/12/31 00:28:09;;;;;;;6.78;2.30;;;;;;;;;;5040676;28;20049;-93
2021/12/31 00:30:36;;;;;;;6.63;2.50;;;;;;;;;;5042873;28;20041;-92
2021/12/31 00:33:03;;;;;;;5.88;2.42;;;;;;;;;;5037215;28;20113;-93
2021/12/31 00:35:31;;;;;;;7.05;2.67;;;;;;;;;;5038599;28;20049;-93
2021/12/31 00:37:57;;;;;;;7.70;2.47;;;;;;;;;;5040834;28;20045;-92
2021/12/31 00:40:23;;;;;;;7.28;2.40;;;;;;;;;;5050933;28;20048;-92
2021/12/31 00:42:49;;;;;;;4.32;2.20;;;;;;;;;;5055148;28;20056;-92
2021/12/31 00:45:19;;;;;;;5.97;3.03;;;;;;;;;;5055125;28;20040;-93
2021/12/31 00:47:46;;;;;;;8.45;2.60;;;;;;;;;;5056490;28;20025;-92
2021/12/31 00:50:13;;;;;;;8.05;2.33;;;;;;;;;;5046299;28;20385;-92
2021/12/31 00:52:39;;;;;;;5.50;2.35;;;;;;;;;;5055646;28;20052;-92
2021/12/31 00:55:07;;;;;;;9.38;2.50;;;;;;;;;;5042210;28;20052;-93
2021/12/31 00:57:33;;;;;;;5.70;2.55;;;;;;;;;;5043000;28;20038;-92
2021/12/31 00:59:59;;;;;;;7.75;2.40;;;;;;;;;;5044000;28;20037;-94
2021/12/31 01:02:28;;;;;;;6.32;2.30;;;;;;;;;;5043497;28;20037;-92
2021/12/31 01:04:55;;;;;;;5.35;2.80;;;;;;;;;;5045051;28;20068;-92
2021/12/31 01:07:21;;;;;;;4.72;2.55;;;;;;;;;;5041540;28;20514;-92
2021/12/31 01:09:47;;;;;;;6.88;2.50;;;;;;;;;;5047993;28;20033;-93
2021/12/31 01:12:14;;;;;;;7.57;2.58;;;;;;;;;;5058771;28;20034;-92
2021/12/31 01:17:35;;;;;;;9.90;3.28;;;;;;;;;;5063629;28;20024;-93
2021/12/31 01:20:01;;;;;;;7.65;2.72;;;;;;;;;;5059096;28;20026;-92
2021/12/31 01:22:30;;;;;;;14.13;3.60;;;;;;;;;;5058673;28;20045;-92
2021/12/31 01:24:57;;;;;;;7.00;2.50;;;;;;;;;;5058560;28;20029;-91
2021/12/31 01:27:23;;;;;;;9.90;2.60;;;;;;;;;;5052287;28;20029;-92
2021/12/31 01:29:49;;;;;;;7.82;2.78;;;;;;;;;;5040987;28;20030;-92
2021/12/31 01:32:15;;;;;;;8.35;2.53;;;;;;;;;;5025094;28;20133;-92
2021/12/31 01:34:41;;;;;;;9.45;2.47;;;;;;;;;;5037349;28;20017;-92
2021/12/31 01:37:09;;;;;;;5.80;2.47;;;;;;;;;;5021785;28;20400;-92
2021/12/31 01:39:36;;;;;;;8.25;3.00;;;;;;;;;;5055538;28;20045;-91
2021/12/31 01:42:06;;;;;;;6.68;2.70;;;;;;;;;;5053809;28;20498;-92
2021/12/31 01:44:38;;;;;;;9.90;2.85;;;;;;;;;;5019108;28;20045;-92
2021/12/31 01:47:09;;;;;;;8.43;2.70;;;;;;;;;;5037120;28;20040;-91
2021/12/31 01:49:38;;;;;;;;;;;;;;;;;;5031135;28;20033;-92
2021/12/31 01:52:06;;;;;;;8.25;2.50;;;;;;;;;;5024423;28;20495;-92
2021/12/31 01:54:33;;;;;;;7.70;2.40;;;;;;;;;;5055943;28;20041;-92
2021/12/31 01:57:01;;;;;;;8.93;2.67;;;;;;;;;;5056528;28;20510;-92
2021/12/31 01:59:28;;;;;;;8.88;2.90;;;;;;;;;;5042817;28;20341;-91
2021/12/31 02:01:55;;;;;;;9.32;2.72;;;;;;;;;;5039972;28;20033;-91
2021/12/31 02:04:21;;;;;;;6.78;2.45;;;;;;;;;;5056376;28;20045;-92
2021/12/31 02:06:47;;;;;;;9.18;2.53;;;;;;;;;;5024046;28;20037;-92
2021/12/31 02:09:13;;;;;;;10.73;2.70;;;;;;;;;;5023937;28;20133;-92
2021/12/31 02:11:40;;;;;;;7.82;2.40;;;;;;;;;;5040923;28;20044;-91
2021/12/31 02:14:06;;;;;;;8.73;2.97;;;;;;;;;;5058848;28;20041;-92
2021/12/31 02:16:33;;;;;;;6.18;2.30;;;;;;;;;;5042558;28;20021;-92
2021/12/31 02:19:13;;;;;;;10.23;3.10;;;;;;;;;;5057845;28;20065;-91
2021/12/31 02:21:44;;;;;;;7.35;2.88;;;;;;;;;;5059330;28;20034;-91
2021/12/31 02:24:10;;;;;;;9.48;2.75;;;;;;;;;;5074499;28;20031;-94
2021/12/31 02:26:36;;;;;;;8.20;2.80;;;;;;;;;;5062198;28;20025;-93
2021/12/31 02:29:03;;;;;;;9.40;2.60;;;;;;;;;;5061780;28;20033;-94
2021/12/31 02:31:30;;;;;;;6.65;3.08;;;;;;;;;;5062156;28;20041;-94
2021/12/31 02:33:56;;;;;;;7.28;2.40;;;;;;;;;;5062162;28;20027;-93
2021/12/31 02:36:22;;;;;;;7.03;2.70;;;;;;;;;;5060851;28;20027;-92
2021/12/31 02:38:49;;;;;;;10.20;2.30;;;;;;;;;;5079225;28;20009;-94
2021/12/31 02:41:15;;;;;;;7.80;2.75;;;;;;;;;;5062181;28;20021;-91
2021/12/31 02:43:41;;;;;;;10.35;3.15;;;;;;;;;;5062855;28;20093;-92
2021/12/31 02:46:08;;;;;;;7.75;2.50;;;;;;;;;;5062421;28;20031;-90
2021/12/31 02:48:34;;;;;;;8.77;2.90;;;;;;;;;;5062451;28;20041;-90
2021/12/31 02:51:06;;;;;;;8.27;2.97;;;;;;;;;;5062627;28;20055;-90
2021/12/31 02:53:38;;;;;;;7.20;2.55;;;;;;;;;;5062460;28;20051;-93
2021/12/31 02:56:10;;;;;;;9.05;2.80;;;;;;;;;;5062177;28;20043;-92
2021/12/31 02:58:37;;;;;;;8.25;2.75;;;;;;;;;;5055793;28;20388;-93
2021/12/31 03:01:05;;;;;;;5.75;2.65;;;;;;;;;;5047821;28;20041;-94
2021/12/31 03:03:34;;;;;;;6.43;2.75;;;;;;;;;;5045342;28;20037;-93
2021/12/31 03:06:00;;;;;;;9.13;2.83;;;;;;;;;;5045222;28;20049;-93
2021/12/31 03:08:30;;;;;;;8.82;2.65;;;;;;;;;;5045154;28;20033;-92
2021/12/31 03:10:58;;;;;;;8.13;2.80;;;;;;;;;;5042372;28;20033;-93
2021/12/31 03:13:24;;;;;;;9.75;3.38;;;;;;;;;;5043666;28;20044;-93
2021/12/31 03:15:52;;;;;;;8.57;2.88;;;;;;;;;;5042175;28;20040;-92
2021/12/31 03:18:19;;;;;;;8.35;2.97;;;;;;;;;;5057284;28;20029;-92
2021/12/31 03:21:01;;;;;;;6.53;2.70;;;;;;;;;;5040431;28;20036;-93
2021/12/31 03:23:29;;;;;;;5.95;2.65;;;;;;;;;;5041192;28;20037;-92
2021/12/31 03:25:55;;;;;;;8.88;3.05;;;;;;;;;;5039686;28;20048;-94
2021/12/31 03:28:21;;;;;;;7.35;2.97;;;;;;;;;;5039773;28;20033;-93
2021/12/31 03:30:47;;;;;;;9.13;2.92;;;;;;;;;;5037005;28;20034;-93
2021/12/31 03:33:14;;;;;;;6.40;2.70;;;;;;;;;;5036870;28;20132;-93
2021/12/31 03:35:40;;;;;;;6.97;2.80;;;;;;;;;;5040509;28;20025;-93
2021/12/31 03:38:06;;;;;;;12.30;3.38;;;;;;;;;;5044113;28;20038;-93
2021/12/31 03:40:33;;;;;;;9.27;3.08;;;;;;;;;;5042775;28;20041;-93
2021/12/31 03:42:59;;;;;;;6.85;2.83;;;;;;;;;;5042382;28;20407;-93
2021/12/31 03:45:25;;;;;;;7.65;2.97;;;;;;;;;;5041061;28;20046;-92
2021/12/31 03:47:51;;;;;;;7.13;2.88;;;;;;;;;;5059123;28;20041;-92
2021/12/31 03:50:17;;;;;;;9.68;2.85;;;;;;;;;;5045601;28;20038;-92
2021/12/31 03:52:43;;;;;;;8.48;2.63;;;;;;;;;;5046808;28;20110;-92
2021/12/31 03:55:10;;;;;;;11.85;2.97;;;;;;;;;;5047400;28;20040;-93
2021/12/31 03:57:37;;;;;;;7.80;2.70;;;;;;;;;;5046612;28;20044;-93
2021/12/31 04:00:05;;;;;;;8.00;2.78;;;;;;;;;;5045875;28;20055;-92
2021/12/31 04:02:31;;;;;;;9.85;3.33;;;;;;;;;;5047088;28;20033;-92
2021/12/31 04:04:57;;;;;;;6.82;2.92;;;;;;;;;;5047653;28;20042;-92
2021/12/31 04:07:23;;;;;;;8.93;3.10;;;;;;;;;;5047546;28;20081;-92
2021/12/31 04:09:49;;;;;;;9.85;3.22;;;;;;;;;;5062766;28;20057;-92
2021/12/31 04:12:15;;;;;;;10.45;3.42;;;;;;;;;;5050827;28;20039;-93
2021/12/31 04:14:41;;;;;;;10.35;4.03;;;;;;;;;;5072508;28;20029;-92
2021/12/31 04:17:07;;;;;;;9.70;3.33;;;;;;;;;;5055546;28;20042;-92
2021/12/31 04:19:33;;;;;;;9.15;3.20;;;;;;;;;;5056588;28;20028;-93
2021/12/31 04:22:00;;;;;;;7.28;3.25;;;;;;;;;;5057067;28;20189;-92
2021/12/31 04:24:52;;;;;;;7.18;3.47;;;;;;;;;;5073229;28;20033;-92
2021/12/31 04:27:20;;;;;;;8.95;3.20;;;;;;;;;;5055588;28;20042;-92
2021/12/31 04:29:53;;;;;;;6.65;3.13;;;;;;;;;;5053985;28;20028;-92
2021/12/31 04:32:23;;;;;;;11.38;3.85;;;;;;;;;;5056523;28;20038;-91
2021/12/31 04:34:50;;;;;;;11.10;3.42;;;;;;;;;;5056807;28;20045;-92
2021/12/31 04:37:16;;;;;;;9.32;3.40;;;;;;;;;;5056642;28;20033;-92
2021/12/31 04:39:42;;;;;;;6.93;3.30;;;;;;;;;;5053558;28;20044;-92
2021/12/31 04:42:09;;;;;;;11.18;3.80;;;;;;;;;;5046065;28;20047;-93
2021/12/31 04:44:35;;;;;;;17.23;3.33;;;;;;;;;;5044761;28;20044;-93
2021/12/31 04:47:01;;;;;;;8.05;2.95;;;;;;;;;;5047582;28;20037;-92
2021/12/31 04:49:27;;;;;;;8.48;3.13;;;;;;;;;;5043237;28;20037;-93
2021/12/31 04:51:52;;;;;;;7.57;3.15;;;;;;;;;;5038260;28;20033;-92
2021/12/31 04:54:18;;;;;;;11.05;3.30;;;;;;;;;;5040175;28;20052;-92
2021/12/31 04:56:45;;;;;;;6.25;3.38;;;;;;;;;;5044320;28;20037;-92
2021/12/31 04:59:11;;;;;;;9.30;3.10;;;;;;;;;;5055885;28;20032;-93
2021/12/31 05:01:37;;;;;;;7.97;3.15;;;;;;;;;;5056985;28;20029;-92
2021/12/31 05:04:04;;;;;;;9.02;3.10;;;;;;;;;;5057780;28;20032;-93
2021/12/31 05:06:30;;;;;;;5.68;2.78;;;;;;;;;;5056412;28;20057;-92
2021/12/31 05:08:56;;;;;;;8.60;2.88;;;;;;;;;;5040325;28;20049;-92
2021/12/31 05:11:22;;;;;;;6.18;2.42;;;;;;;;;;5040469;28;20038;-92
2021/12/31 05:13:48;;;;;;;5.95;2.50;;;;;;;;;;5040612;28;20056;-92
2021/12/31 05:16:14;;;;;;;9.55;3.00;;;;;;;;;;5041787;28;20072;-93
2021/12/31 05:18:40;;;;;;;6.30;3.13;;;;;;;;;;5040254;28;20496;-92
2021/12/31 05:21:06;;;;;;;6.78;2.83;;;;;;;;;;5041246;28;20034;-92
2021/12/31 05:23:32;;;;;;;6.57;2.70;;;;;;;;;;5042043;28;20038;-92
2021/12/31 05:25:57;;;;;;;6.65;2.75;;;;;;;;;;5040634;28;20045;-92
2021/12/31 05:28:23;;;;;;;8.02;2.83;;;;;;;;;;5040462;28;20041;-93
2021/12/31 05:30:49;;;;;;;7.38;2.67;;;;;;;;;;5040067;28;20042;-93
2021/12/31 05:33:15;;;;;;;6.68;2.60;;;;;;;;;;5038961;28;20045;-93
2021/12/31 05:35:41;;;;;;;7.18;2.90;;;;;;;;;;5039889;28;20048;-92
2021/12/31 05:38:07;;;;;;;5.93;2.50;;;;;;;;;;5045130;28;20033;-92
2021/12/31 05:40:34;;;;;;;5.72;2.88;;;;;;;;;;5061448;28;20069;-92
2021/12/31 05:43:00;;;;;;;7.80;2.92;;;;;;;;;;5042892;28;20037;-92
2021/12/31 05:45:26;;;;;;;6.35;2.45;;;;;;;;;;5042048;28;20041;-92
2021/12/31 05:47:53;;;;;;;7.90;2.88;;;;;;;;;;5041732;28;20064;-92
2021/12/31 05:50:28;;;;;;;6.95;2.78;;;;;;;;;;5045789;28;20044;-92
2021/12/31 05:52:59;;;;;;;9.45;2.70;;;;;;;;;;5046995;28;20052;-92
2021/12/31 05:55:28;;;;;;;6.10;2.38;;;;;;;;;;5047239;28;20045;-92
2021/12/31 05:57:56;;;;;;;5.82;2.70;;;;;;;;;;5048430;28;20041;-92
2021/12/31 06:00:23;;;;;;;8.05;2.80;;;;;;;;;;5050032;28;20036;-92
2021/12/31 06:02:50;;;;;;;9.25;2.83;;;;;;;;;;5049093;28;20045;-92
2021/12/31 06:05:16;;;;;;;6.25;2.92;;;;;;;;;;5066050;28;20049;-92
2021/12/31 06:07:42;;;;;;;5.22;2.58;;;;;;;;;;5047558;28;20037;-92
2021/12/31 06:10:08;;;;;;;6.80;2.95;;;;;;;;;;5047063;28;20373;-93
2021/12/31 06:12:35;;;;;;;6.45;3.00;;;;;;;;;;5047003;28;20034;-94
2021/12/31 06:15:03;;;;;;;6.97;2.80;;;;;;;;;;5046709;28;20037;-92
2021/12/31 06:17:31;;;;;;;6.32;3.00;;;;;;;;;;5044658;28;20037;-93
2021/12/31 06:19:57;;;;;;;5.82;2.70;;;;;;;;;;5045944;28;20048;-92
2021/12/31 06:22:24;;;;;;;8.15;2.90;;;;;;;;;;5046003;28;20048;-92
2021/12/31 06:24:51;;;;;;;7.72;3.03;;;;;;;;;;5040129;28;20045;-93
2021/12/31 06:27:18;;;;;;;8.85;2.63;;;;;;;;;;5056315;28;20040;-93
2021/12/31 06:29:44;;;;;;;6.38;2.45;;;;;;;;;;5047460;28;20045;-93
2021/12/31 06:32:10;;;;;;;8.38;2.88;;;;;;;;;;5046273;28;20029;-93
2021/12/31 06:34:36;;;;;;;6.28;2.95;;;;;;;;;;5042670;28;20042;-93
2021/12/31 06:37:02;;;;;;;6.32;2.53;;;;;;;;;;5047981;28;20041;-93
2021/12/31 06:39:28;;;;;;;5.70;2.35;;;;;;;;;;5048221;28;20052;-93
2021/12/31 06:41:54;;;;;;;6.53;2.80;;;;;;;;;;5047716;28;20457;-93
2021/12/31 06:44:20;;;;;;;7.60;2.85;;;;;;;;;;5049191;28;20048;-92
2021/12/31 06:46:47;;;;;;;6.30;2.90;;;;;;;;;;5055018;28;20052;-93
2021/12/31 06:49:13;;;;;;;8.07;3.13;;;;;;;;;;5056920;28;20042;-92
2021/12/31 06:51:39;;;;;;;10.63;3.05;;;;;;;;;;5057001;28;20228;-92
2021/12/31 06:54:05;;;;;;;6.15;2.72;;;;;;;;;;5060761;28;20043;-92
2021/12/31 06:56:31;;;;;;;48.05;27.13;;;;;;;;;;5061102;28;20029;-92
2021/12/31 06:58:57;;;;;;;9.82;3.58;;;;;;;;;;5062443;28;20112;-92
2021/12/31 07:01:24;;;;;;;12.63;6.28;;;;;;;;;;5062399;28;20033;-92
2021/12/31 07:03:50;;;;;;;21.58;9.82;;;;;;;;;;5126567;23;20047;-92
2021/12/31 07:06:16;;;;;;;7.28;2.83;;;;;;;;;;5060268;28;20041;-91
2021/12/31 07:08:42;;;;;;;6.53;2.92;;;;;;;;;;5059475;28;20073;-93
2021/12/31 07:11:08;;;;;;;9.30;2.80;;;;;;;;;;5058939;28;20030;-93
2021/12/31 07:13:35;;;;;;;7.97;2.90;;;;;;;;;;5059483;28;20021;-93
2021/12/31 07:16:02;;;;;;;8.13;3.03;;;;;;;;;;5036372;28;20037;-93
2021/12/31 07:18:28;;;;;;;6.45;3.20;;;;;;;;;;5037330;28;20040;-92
2021/12/31 07:20:54;;;;;;;7.47;3.22;;;;;;;;;;5052638;28;20026;-91
2021/12/31 07:23:22;;;;;;;8.57;3.08;;;;;;;;;;5035328;28;20443;-93
2021/12/31 07:25:48;;;;;;;6.85;3.28;;;;;;;;;;5037900;28;20041;-92
2021/12/31 07:28:15;;;;;;;24.10;14.10;;;;;;;;;;5046519;28;20029;-92
2021/12/31 07:30:43;;;;;;;42.42;23.15;;;;;;;;;;5042365;28;20285;-93
2021/12/31 07:33:23;;;;;;;12.13;5.00;;;;;;;;;;5049138;28;20038;-93
2021/12/31 07:35:55;;;;;;;13.63;5.37;;;;;;;;;;5047929;28;20037;-92
2021/12/31 07:38:27;;;;;;;12.45;6.95;;;;;;;;;;5050604;28;20052;-92
2021/12/31 07:40:53;;;;;;;;;;;;;;;;;;5048546;28;20042;-93
2021/12/31 07:43:22;;;;;;;8.50;3.80;;;;;;;;;;5065844;28;19913;-93
2021/12/31 07:45:49;;;;;;;7.35;3.63;;;;;;;;;;5050047;28;20037;-93
2021/12/31 07:48:16;;;;;;;9.55;3.80;;;;;;;;;;5051900;28;20033;-94
2021/12/31 07:50:49;;;;;;;9.55;3.85;;;;;;;;;;5068993;28;20025;-93
2021/12/31 07:53:16;;;;;;;6.57;3.05;;;;;;;;;;5043917;28;20041;-92
2021/12/31 07:55:42;;;;;;;7.72;3.13;;;;;;;;;;5026622;28;20038;-92
2021/12/31 07:58:09;;;;;;;7.80;3.40;;;;;;;;;;5019621;28;20037;-91
2021/12/31 08:00:35;;;;;;;8.25;3.10;;;;;;;;;;5031024;28;20032;-90
2021/12/31 08:05:58;;;;;;;7.53;2.80;;;;;;;;;;3380548;26;20034;-92
2021/12/31 08:08:24;;;;;;;5.28;2.80;;;;;;;;;;5060220;28;20026;-93
2021/12/31 08:10:53;;;;;;;11.00;4.70;;;;;;;;;;5060405;28;20017;-92
2021/12/31 08:13:19;;;;;;;11.43;6.57;;;;;;;;;;5060534;28;20009;-92
2021/12/31 08:15:45;;;;;;;6.38;2.85;;;;;;;;;;5060637;28;20022;-90
2021/12/31 08:18:10;;;;;;;6.25;2.60;;;;;;;;;;5060167;28;20022;-93
2021/12/31 08:20:37;;;;;;;6.75;2.63;;;;;;;;;;5059772;28;20021;-92
2021/12/31 08:23:09;;;;;;;6.07;2.85;;;;;;;;;;5060665;28;20021;-92
2021/12/31 08:25:38;;;;;;;7.72;2.70;;;;;;;;;;5060336;28;20017;-92
2021/12/31 08:28:05;;;;;;;9.00;2.90;;;;;;;;;;5145077;22;20030;-92
2021/12/31 08:30:31;;;;;;;6.60;2.50;;;;;;;;;;5019150;28;20025;-87
2021/12/31 08:32:57;;;;;;;5.78;2.40;;;;;;;;;;5018257;28;20041;-86
2021/12/31 08:35:24;;;;;;;7.07;2.67;;;;;;;;;;5012914;28;20022;-89
2021/12/31 08:37:51;;;;;;;7.95;2.65;;;;;;;;;;4997381;28;20490;-91
2021/12/31 08:40:17;;;;;;;5.63;2.58;;;;;;;;;;4994804;28;20368;-81
2021/12/31 08:42:43;;;;;;;7.70;2.60;;;;;;;;;;4994409;28;20026;-80
2021/12/31 08:45:09;;;;;;;7.18;2.85;;;;;;;;;;4994140;28;20472;-81
2021/12/31 08:47:35;;;;;;;7.75;2.70;;;;;;;;;;5008348;28;20423;-81
2021/12/31 08:50:01;;;;;;;6.95;2.65;;;;;;;;;;4993838;28;20026;-82
2021/12/31 08:52:27;;;;;;;6.22;2.60;;;;;;;;;;4992678;28;20026;-79
2021/12/31 08:54:53;;;;;;;7.30;3.08;;;;;;;;;;4992153;28;20054;-80
2021/12/31 08:57:19;;;;;;;6.55;2.55;;;;;;;;;;5006911;28;20062;-80
2021/12/31 08:59:45;;;;;;;5.53;2.70;;;;;;;;;;4987763;28;20062;-81
2021/12/31 09:02:11;;;;;;;7.10;2.47;;;;;;;;;;4972837;28;20122;-81
2021/12/31 09:04:38;;;;;;;5.50;2.85;;;;;;;;;;4975014;28;20027;-83
2021/12/31 09:07:04;;;;;;;7.75;2.90;;;;;;;;;;4991795;28;20026;-81
2021/12/31 09:09:30;;;;;;;7.65;2.78;;;;;;;;;;4992700;28;20027;-83
2021/12/31 09:11:56;;;;;;;6.47;2.63;;;;;;;;;;4992996;28;20031;-89
2021/12/31 09:14:23;;;;;;;7.07;2.97;;;;;;;;;;5000049;28;20121;-92
2021/12/31 09:16:50;;;;;;;6.70;2.60;;;;;;;;;;4997267;28;20044;-89
2021/12/31 09:19:16;;;;;;;7.80;2.85;;;;;;;;;;4983933;28;20035;-90
2021/12/31 09:21:42;;;;;;;6.85;2.40;;;;;;;;;;4993300;28;20033;-89
2021/12/31 09:24:08;;;;;;;6.70;2.53;;;;;;;;;;5012337;28;20035;-90
2021/12/31 09:26:34;;;;;;;5.30;2.42;;;;;;;;;;4996619;28;20034;-89
2021/12/31 09:29:00;;;;;;;7.15;2.58;;;;;;;;;;4994196;28;20039;-89
2021/12/31 09:31:26;;;;;;;5.20;2.50;;;;;;;;;;4994996;28;20496;-91
2021/12/31 09:33:52;;;;;;;6.15;2.20;;;;;;;;;;4996863;28;20061;-90
2021/12/31 09:36:18;;;;;;;9.30;2.67;;;;;;;;;;5017475;28;20073;-90
2021/12/31 09:38:45;;;;;;;8.10;2.45;;;;;;;;;;5022980;28;20039;-90
2021/12/31 09:41:11;;;;;;;7.82;3.10;;;;;;;;;;4997447;28;20102;-90
2021/12/31 09:43:38;;;;;;;4.88;2.35;;;;;;;;;;4997796;28;20030;-90
2021/12/31 09:46:04;;;;;;;6.20;2.33;;;;;;;;;;4998210;28;20042;-91
2021/12/31 09:48:30;;;;;;;5.57;2.42;;;;;;;;;;4999122;28;20420;-91
2021/12/31 09:50:57;;;;;;;4.95;2.20;;;;;;;;;;4998457;28;20041;-88
2021/12/31 09:53:24;;;;;;;4.90;2.10;;;;;;;;;;4999790;28;20114;-90
2021/12/31 09:55:53;;;;;;;5.75;2.28;;;;;;;;;;4999705;28;20054;-91
2021/12/31 09:58:20;;;;;;;4.45;2.30;;;;;;;;;;5000582;28;20501;-89
2021/12/31 10:00:48;;;;;;;6.40;2.40;;;;;;;;;;5004805;28;20362;-90
2021/12/31 10:03:25;;;;;;;17.13;3.03;;;;;;;;;;5003776;28;20042;-94
2021/12/31 10:05:57;;;;;;;6.07;2.67;;;;;;;;;;5004213;28;20492;-90
2021/12/31 10:08:30;;;;;;;8.18;3.20;;;;;;;;;;5004181;28;20042;-90
2021/12/31 10:11:03;;;;;;;5.78;2.42;;;;;;;;;;5000355;28;20053;-88
2021/12/31 10:13:31;;;;;;;5.78;2.30;;;;;;;;;;5001274;28;20038;-89
2021/12/31 10:15:58;;;;;;;5.80;2.30;;;;;;;;;;4998925;28;20484;-90
2021/12/31 10:18:38;;;;;;;4.75;2.33;;;;;;;;;;4996794;28;20045;-91
2021/12/31 10:21:05;;;;;;;7.20;2.75;;;;;;;;;;4996927;28;20038;-84
2021/12/31 10:23:37;;;;;;;5.00;2.33;;;;;;;;;;4995775;28;20034;-86
2021/12/31 10:26:13;;;;;;;4.72;2.20;;;;;;;;;;4995455;28;20030;-89
2021/12/31 10:28:59;;;;;;;4.95;2.50;;;;;;;;;;5010608;28;20049;-87
2021/12/31 10:31:27;;;;;;;7.53;2.22;;;;;;;;;;4994931;28;20030;-84
2021/12/31 10:33:53;;;;;;;5.07;2.28;;;;;;;;;;4993840;28;20038;-81
2021/12/31 10:36:32;;;;;;;5.82;2.45;;;;;;;;;;4993530;28;20038;-84
2021/12/31 10:39:00;;;;;;;5.43;2.40;;;;;;;;;;4993557;28;20496;-83
2021/12/31 10:41:27;;;;;;;6.55;2.20;;;;;;;;;;4993758;28;20031;-84
2021/12/31 10:43:59;;;;;;;6.38;2.30;;;;;;;;;;4993633;28;20473;-83
2021/12/31 10:46:25;;;;;;;5.43;2.63;;;;;;;;;;4993792;28;20404;-83
2021/12/31 10:48:55;;;;;;;6.05;2.30;;;;;;;;;;4992449;28;20042;-83
2021/12/31 10:51:38;;;;;;;4.30;2.13;;;;;;;;;;4991234;28;20035;-84
2021/12/31 10:54:27;;;;;;;6.65;2.28;;;;;;;;;;4994569;28;20488;-82
2021/12/31 10:56:53;;;;;;;5.90;2.30;;;;;;;;;;4994177;28;20051;-84
2021/12/31 10:59:19;;;;;;;5.35;2.10;;;;;;;;;;4994508;28;20038;-84
2021/12/31 11:01:45;;;;;;;5.63;2.35;;;;;;;;;;4994505;28;20065;-83
2021/12/31 11:04:12;;;;;;;6.82;2.55;;;;;;;;;;4995337;28;20476;-84
2021/12/31 11:06:41;;;;;;;7.22;2.92;;;;;;;;;;4993761;28;20046;-84
2021/12/31 11:09:07;;;;;;;8.02;2.40;;;;;;;;;;4993623;28;20042;-84
2021/12/31 11:11:37;;;;;;;6.07;2.50;;;;;;;;;;4994630;28;20038;-83
2021/12/31 11:14:04;;;;;;;5.87;2.77;;;;;;;;;;4994562;28;20050;-83
2021/12/31 11:16:30;;;;;;;8.27;2.80;;;;;;;;;;4993696;28;20362;-82
2021/12/31 11:18:56;;;;;;;7.25;2.80;;;;;;;;;;5007710;28;20045;-83
2021/12/31 11:21:23;;;;;;;8.00;2.28;;;;;;;;;;4993854;28;20038;-82
2021/12/31 11:23:49;;;;;;;7.07;2.90;;;;;;;;;;4995020;28;20035;-81
2021/12/31 11:26:26;;;;;;;5.68;2.40;;;;;;;;;;4992637;28;20429;-81
2021/12/31 11:28:53;;;;;;;6.03;2.42;;;;;;;;;;4992390;28;20401;-84
2021/12/31 11:31:18;;;;;;;4.43;2.42;;;;;;;;;;5003910;28;20042;-85
2021/12/31 11:39:13;;;;;;;8.23;2.85;;;;;;;;;;5614457;22;20053;-87
2021/12/31 11:41:40;;;;;;;6.75;2.60;;;;;;;;;;4968882;28;20055;-88
2021/12/31 11:44:09;;;;;;;5.30;2.25;;;;;;;;;;4971941;28;20058;-83
2021/12/31 11:46:36;;;;;;;5.65;2.50;;;;;;;;;;4975152;28;20042;-83
2021/12/31 11:49:08;;;;;;;7.15;2.60;;;;;;;;;;4975694;28;20073;-83
2021/12/31 11:51:36;;;;;;;6.05;2.50;;;;;;;;;;4975521;28;20038;-83
2021/12/31 11:54:04;;;;;;;4.13;2.30;;;;;;;;;;4975799;28;20029;-84
2021/12/31 11:56:32;;;;;;;6.65;2.45;;;;;;;;;;4974960;28;20035;-84
2021/12/31 11:59:07;;;;;;;5.63;2.40;;;;;;;;;;4975686;28;20041;-83
2021/12/31 12:01:51;;;;;;;6.97;2.90;;;;;;;;;;4974912;28;20039;-82
2021/12/31 12:04:24;;;;;;;4.72;2.42;;;;;;;;;;4956951;28;20031;-83
2021/12/31 12:06:57;;;;;;;5.70;2.83;;;;;;;;;;4974548;28;20476;-82
2021/12/31 12:09:43;;;;;;;5.95;3.05;;;;;;;;;;4956877;28;20054;-82
2021/12/31 12:12:23;;;;;;;6.10;2.60;;;;;;;;;;4974281;28;20489;-82
2021/12/31 12:14:56;;;;;;;6.78;2.67;;;;;;;;;;4975472;28;20046;-82
2021/12/31 12:17:28;;;;;;;5.00;2.55;;;;;;;;;;4957092;28;20043;-82
2021/12/31 12:19:57;;;;;;;5.45;2.60;;;;;;;;;;4974291;28;20046;-83
2021/12/31 12:22:26;;;;;;;5.15;2.60;;;;;;;;;;4974588;28;20046;-82
2021/12/31 12:24:53;;;;;;;5.97;3.00;;;;;;;;;;4974241;28;20106;-83
2021/12/31 12:27:22;;;;;;;6.55;2.70;;;;;;;;;;4973992;28;20049;-83
2021/12/31 12:29:52;;;;;;;6.25;2.35;;;;;;;;;;4974113;28;20054;-83
2021/12/31 12:32:30;;;;;;;3.97;2.25;;;;;;;;;;4974310;28;20023;-83
2021/12/31 12:34:56;;;;;;;4.00;2.20;;;;;;;;;;4974267;28;20477;-83
2021/12/31 12:37:29;;;;;;;4.82;2.35;;;;;;;;;;4974450;28;20104;-82
2021/12/31 12:40:03;;;;;;;4.38;2.30;;;;;;;;;;4974382;28;20485;-82
2021/12/31 12:42:29;;;;;;;4.60;2.00;;;;;;;;;;4973706;28;20047;-82
2021/12/31 12:45:06;;;;;;;5.78;2.10;;;;;;;;;;4974212;28;20045;-83
2021/12/31 12:47:35;;;;;;;6.68;2.47;;;;;;;;;;4974174;28;20118;-83
2021/12/31 12:50:08;;;;;;;8.50;2.65;;;;;;;;;;4956545;28;20038;-82
2021/12/31 12:52:35;;;;;;;6.47;2.45;;;;;;;;;;4974175;28;20499;-83
2021/12/31 12:55:11;;;;;;;6.03;2.30;;;;;;;;;;4974408;28;20053;-83
2021/12/31 12:57:38;;;;;;;6.18;2.90;;;;;;;;;;4975141;28;20027;-83
2021/12/31 13:00:07;;;;;;;7.57;3.05;;;;;;;;;;4977890;28;20041;-82
2021/12/31 13:02:44;;;;;;;4.68;2.30;;;;;;;;;;4974552;28;20042;-83
2021/12/31 13:05:17;;;;;;;4.93;2.20;;;;;;;;;;4974275;28;20046;-83
2021/12/31 13:07:53;;;;;;;4.35;2.15;;;;;;;;;;4957211;28;20050;-83
2021/12/31 13:10:23;;;;;;;5.13;2.10;;;;;;;;;;4976121;28;20023;-82
2021/12/31 13:12:49;;;;;;;6.72;2.70;;;;;;;;;;4975735;28;20046;-83
2021/12/31 13:15:15;;;;;;;3.55;2.00;;;;;;;;;;4974542;28;20038;-84
2021/12/31 13:17:41;;;;;;;3.83;2.10;;;;;;;;;;4974848;28;20473;-83
2021/12/31 13:20:11;;;;;;;4.93;2.17;;;;;;;;;;4973893;28;20046;-83
2021/12/31 13:22:38;;;;;;;3.85;2.08;;;;;;;;;;4975453;28;20055;-83
2021/12/31 13:25:06;;;;;;;4.97;2.20;;;;;;;;;;4974124;28;20058;-84
2021/12/31 13:27:34;;;;;;;5.95;2.20;;;;;;;;;;4973678;28;20043;-82
2021/12/31 13:30:11;;;;;;;5.07;2.22;;;;;;;;;;4973400;28;20039;-82
2021/12/31 13:32:42;;;;;;;4.53;2.13;;;;;;;;;;4974336;28;20368;-83
2021/12/31 13:35:12;;;;;;;4.13;2.20;;;;;;;;;;4956435;28;20038;-82
2021/12/31 13:37:41;;;;;;;3.13;1.80;;;;;;;;;;4972688;28;20481;-83
2021/12/31 13:40:20;;;;;;;3.33;1.77;;;;;;;;;;4973250;28;20061;-83
2021/12/31 13:43:00;;;;;;;3.25;1.90;;;;;;;;;;4976935;28;20473;-82
2021/12/31 13:45:26;;;;;;;3.13;1.73;;;;;;;;;;4973846;28;20054;-83
2021/12/31 13:47:53;;;;;;;4.32;2.00;;;;;;;;;;4973480;28;20070;-82
2021/12/31 13:50:22;;;;;;;3.95;1.90;;;;;;;;;;4974307;28;20039;-82
2021/12/31 13:52:50;;;;;;;5.88;2.00;;;;;;;;;;4973416;28;20042;-83
2021/12/31 13:55:22;;;;;;;4.75;1.67;;;;;;;;;;4956592;28;20046;-83
2021/12/31 13:58:06;;;;;;;4.38;1.90;;;;;;;;;;4975052;28;20031;-83
2021/12/31 14:00:34;;;;;;;5.25;1.98;;;;;;;;;;4974525;28;20046;-83
2021/12/31 14:03:15;;;;;;;3.05;1.77;;;;;;;;;;4957524;28;20039;-83
2021/12/31 14:06:04;;;;;;;4.10;2.13;;;;;;;;;;4974093;28;20484;-83
2021/12/31 14:11:02;;;;;;;4.35;2.22;;;;;;;;;;4973415;28;20396;-83
2021/12/31 14:13:28;;;;;;;38.58;24.75;;;;;;;;;;4956836;28;20050;-83
2021/12/31 14:15:54;;;;;;;7.90;3.63;;;;;;;;;;4974072;28;20362;-83
2021/12/31 14:18:20;;;;;;;4.75;2.13;;;;;;;;;;4975703;28;20030;-81
2021/12/31 14:20:46;;;;;;;5.18;2.28;;;;;;;;;;4978309;28;20062;-83
2021/12/31 14:23:13;;;;;;;4.78;2.10;;;;;;;;;;4977961;28;20207;-82
2021/12/31 14:25:41;;;;;;;5.75;2.10;;;;;;;;;;4978168;28;20026;-84
2021/12/31 14:28:08;;;;;;;6.32;2.05;;;;;;;;;;4977636;28;20050;-83
2021/12/31 14:30:36;;;;;;;4.93;2.42;;;;;;;;;;4977139;28;20027;-83
2021/12/31 14:33:02;;;;;;;5.10;2.60;;;;;;;;;;4976894;28;20031;-82
2021/12/31 14:35:39;;;;;;;5.57;2.80;;;;;;;;;;4978627;28;20460;-83
2021/12/31 14:38:10;;;;;;;7.22;2.97;;;;;;;;;;4976555;28;20070;-83
2021/12/31 14:40:38;;;;;;;6.72;2.67;;;;;;;;;;4977060;28;20059;-83
2021/12/31 14:43:04;;;;;;;5.70;3.05;;;;;;;;;;4976342;28;20049;-83
2021/12/31 14:45:30;;;;;;;6.60;2.50;;;;;;;;;;4959520;28;20369;-83
2021/12/31 14:47:57;;;;;;;8.98;3.10;;;;;;;;;;4976643;28;20046;-82
2021/12/31 14:50:23;;;;;;;6.05;2.80;;;;;;;;;;4974527;28;20035;-83
2021/12/31 14:52:53;;;;;;;8.13;3.30;;;;;;;;;;4976703;28;20042;-83
2021/12/31 14:55:20;;;;;;;25.48;15.35;;;;;;;;;;4976953;28;20031;-83
2021/12/31 14:57:47;;;;;;;13.40;8.52;;;;;;;;;;4975625;28;20046;-83
2021/12/31 15:00:16;;;;;;;6.93;3.90;;;;;;;;;;4976331;28;20480;-83
2021/12/31 15:02:41;;;;;;;7.63;3.20;;;;;;;;;;4978195;28;20023;-83